createdAt,value
2018-05-12T00:01:40.702Z,9.07
2018-05-12T00:04:06.907Z,8.70
2018-05-12T00:06:33.888Z,9.70
2018-05-12T00:09:00.144Z,9.47
2018-05-12T00:11:26.352Z,9.70
2018-05-12T00:13:52.781Z,9.00
2018-05-12T00:16:19.048Z,9.67
2018-05-12T00:18:45.262Z,9.23
2018-05-12T00:21:11.470Z,8.63
2018-05-12T00:23:38.472Z,9.30
2018-05-12T00:26:04.711Z,10.00
2018-05-12T00:28:32.060Z,9.67
2018-05-12T00:30:58.272Z,10.30
2018-05-12T00:33:24.578Z,9.77
2018-05-12T00:35:50.964Z,9.93
2018-05-12T00:38:17.920Z,10.60
2018-05-12T00:40:44.148Z,10.33
2018-05-12T00:43:11.114Z,9.83
2018-05-12T00:45:37.379Z,10.03
2018-05-12T00:48:03.671Z,10.53
2018-05-12T00:50:29.942Z,10.57
2018-05-12T00:52:56.149Z,10.20
2018-05-12T00:55:22.422Z,9.83
2018-05-12T00:57:49.555Z,11.00
2018-05-12T01:00:15.791Z,10.90
2018-05-12T01:02:41.997Z,10.90
2018-05-12T01:05:08.216Z,11.27
2018-05-12T01:07:34.421Z,10.97
2018-05-12T01:10:00.637Z,11.10
2018-05-12T01:12:27.613Z,11.07
2018-05-12T01:14:54.377Z,12.23
2018-05-12T01:17:20.589Z,10.10
2018-05-12T01:19:46.799Z,12.20
2018-05-12T01:22:13.062Z,11.23
2018-05-12T01:24:39.280Z,11.23
2018-05-12T01:27:05.508Z,10.93
2018-05-12T01:29:31.904Z,12.40
2018-05-12T01:31:58.909Z,12.77
2018-05-12T01:34:25.198Z,11.63
2018-05-12T01:36:51.558Z,11.03
2018-05-12T01:39:17.765Z,11.60
2018-05-12T01:41:45.380Z,11.37
2018-05-12T01:44:12.409Z,12.30
2018-05-12T01:46:38.664Z,12.87
2018-05-12T01:49:04.872Z,11.23
2018-05-12T01:51:31.085Z,13.30
2018-05-12T01:53:57.423Z,12.87
2018-05-12T01:56:23.760Z,11.97
2018-05-12T01:58:50.003Z,12.60
2018-05-12T02:01:16.236Z,12.73
2018-05-12T02:03:42.612Z,12.47
2018-05-12T02:06:09.028Z,12.40
2018-05-12T02:08:35.256Z,13.60
2018-05-12T02:11:01.485Z,11.73
2018-05-12T02:13:28.431Z,12.87
2018-05-12T02:15:54.657Z,12.40
2018-05-12T02:18:21.631Z,12.80
2018-05-12T02:20:47.848Z,13.00
2018-05-12T02:23:14.505Z,14.20
2018-05-12T02:25:40.763Z,14.07
2018-05-12T02:28:06.977Z,12.23
2018-05-12T02:30:33.253Z,13.43
2018-05-12T02:32:59.453Z,14.10
2018-05-12T02:35:25.671Z,13.60
2018-05-12T02:37:52.061Z,13.80
2018-05-12T02:40:18.742Z,13.90
2018-05-12T02:42:44.959Z,14.43
2018-05-12T02:45:11.205Z,13.23
2018-05-12T02:47:37.420Z,13.50
2018-05-12T02:50:03.657Z,14.60
2018-05-12T02:52:29.900Z,13.53
2018-05-12T02:54:56.112Z,14.07
2018-05-12T02:57:22.315Z,12.87
2018-05-12T02:59:48.575Z,14.70
2018-05-12T03:02:14.823Z,13.50
2018-05-12T03:04:41.057Z,16.20
2018-05-12T03:07:07.264Z,14.20
2018-05-12T03:09:33.893Z,14.00
2018-05-12T03:12:00.114Z,14.00
2018-05-12T03:14:26.324Z,13.83
2018-05-12T03:16:52.598Z,13.97
2018-05-12T03:19:18.820Z,13.23
2018-05-12T03:21:45.047Z,13.63
2018-05-12T03:24:11.289Z,13.60
2018-05-12T03:26:37.504Z,15.17
2018-05-12T03:29:03.728Z,14.30
2018-05-12T03:31:30.074Z,13.70
2018-05-12T03:33:56.302Z,13.27
2018-05-12T03:36:22.548Z,13.70
2018-05-12T03:38:48.743Z,14.87
2018-05-12T03:41:14.990Z,14.77
2018-05-12T03:43:41.196Z,14.23
2018-05-12T03:46:07.405Z,13.60
2018-05-12T03:48:33.765Z,14.40
2018-05-12T03:51:00.010Z,13.27
2018-05-12T03:53:26.244Z,13.53
2018-05-12T03:55:52.572Z,14.50
2018-05-12T03:58:18.799Z,14.43
2018-05-12T04:00:45.040Z,14.10
2018-05-12T04:03:11.283Z,12.93
2018-05-12T04:05:50.341Z,12.30
2018-05-12T04:08:28.953Z,13.97
2018-05-12T04:11:08.226Z,13.20
2018-05-12T04:13:34.445Z,14.23
2018-05-12T04:16:00.695Z,12.53
2018-05-12T04:18:26.943Z,14.97
2018-05-12T04:20:54.126Z,11.90
2018-05-12T04:23:20.260Z,12.90
2018-05-12T04:25:46.492Z,12.47
2018-05-12T04:28:12.892Z,12.83
2018-05-12T04:30:39.929Z,13.70
2018-05-12T04:33:06.132Z,12.47
2018-05-12T04:35:32.371Z,12.60
2018-05-12T04:37:58.569Z,13.13
2018-05-12T04:40:24.769Z,12.70
2018-05-12T04:42:51.430Z,12.17
2018-05-12T04:45:18.381Z,13.10
2018-05-12T04:47:44.624Z,12.80
2018-05-12T04:50:10.832Z,13.73
2018-05-12T04:52:37.017Z,11.40
2018-05-12T04:55:04.332Z,12.97
2018-05-12T04:57:30.541Z,12.40
2018-05-12T04:59:56.761Z,12.10
2018-05-12T05:02:22.979Z,12.97
2018-05-12T05:04:49.446Z,13.87
2018-05-12T05:07:26.541Z,12.37
2018-05-12T05:09:52.893Z,11.90
2018-05-12T05:12:19.109Z,13.70
2018-05-12T05:14:45.329Z,13.17
2018-05-12T05:17:11.578Z,14.93
2018-05-12T05:19:37.795Z,14.00
2018-05-12T05:22:04.041Z,12.63
2018-05-12T05:24:30.343Z,13.80
2018-05-12T05:26:56.576Z,13.33
2018-05-12T05:29:22.774Z,13.13
2018-05-12T05:31:49.042Z,14.07
2018-05-12T05:34:15.253Z,13.40
2018-05-12T05:36:41.517Z,13.43
2018-05-12T05:39:07.720Z,14.37
2018-05-12T05:41:34.045Z,14.17
2018-05-12T05:44:00.965Z,14.53
2018-05-12T05:46:27.153Z,13.70
2018-05-12T05:48:54.241Z,14.40
2018-05-12T05:51:20.440Z,15.57
2018-05-12T05:53:47.415Z,15.93
2018-05-12T05:56:13.659Z,14.57
2018-05-12T05:58:42.119Z,15.10
2018-05-12T06:01:09.765Z,16.93
2018-05-12T06:03:36.734Z,14.43
2018-05-12T06:06:03.803Z,14.70
2018-05-12T06:08:30.041Z,14.67
2018-05-12T06:10:56.312Z,15.80
2018-05-12T06:13:23.295Z,15.10
2018-05-12T06:15:49.504Z,15.83
2018-05-12T06:18:15.723Z,16.53
2018-05-12T06:20:42.646Z,16.90
2018-05-12T06:23:08.990Z,14.73
2018-05-12T06:25:35.929Z,15.47
2018-05-12T06:28:02.154Z,16.77
2018-05-12T06:30:28.364Z,17.93
2018-05-12T06:32:55.102Z,16.80
2018-05-12T06:35:21.326Z,16.10
2018-05-12T06:37:47.540Z,16.83
2018-05-12T06:40:13.733Z,16.80
2018-05-12T06:42:40.668Z,17.57
2018-05-12T06:45:07.648Z,17.63
2018-05-12T06:47:33.866Z,16.83
2018-05-12T06:50:00.173Z,16.83
2018-05-12T06:52:27.165Z,17.07
2018-05-12T06:54:53.412Z,16.87
2018-05-12T06:57:19.649Z,16.20
2018-05-12T06:59:45.850Z,15.20
2018-05-12T07:02:12.048Z,16.00
2018-05-12T07:04:38.256Z,17.27
2018-05-12T07:07:04.460Z,15.93
2018-05-12T07:09:31.017Z,16.73
2018-05-12T07:11:57.278Z,16.87
2018-05-12T07:14:23.536Z,18.20
2018-05-12T07:16:49.785Z,17.10
2018-05-12T07:19:16.390Z,18.33
2018-05-12T07:21:42.646Z,17.63
2018-05-12T07:24:08.849Z,15.47
2018-05-12T07:26:35.104Z,17.97
2018-05-12T07:29:01.507Z,16.50
2018-05-12T07:31:28.005Z,17.10
2018-05-12T07:33:55.019Z,18.63
2018-05-12T07:36:21.232Z,17.50
2018-05-12T07:38:47.439Z,16.70
2018-05-12T07:41:13.718Z,17.60
2018-05-12T07:43:39.993Z,18.23
2018-05-12T07:46:06.212Z,18.23
2018-05-12T07:48:33.186Z,17.33
2018-05-12T07:50:59.443Z,16.80
2018-05-12T07:53:25.659Z,17.30
2018-05-12T07:55:52.051Z,15.93
2018-05-12T07:58:29.264Z,16.77
2018-05-12T08:00:55.526Z,15.30
2018-05-12T08:03:21.789Z,15.60
2018-05-12T08:05:48.754Z,15.67
2018-05-12T08:08:14.965Z,15.87
2018-05-12T08:10:41.929Z,16.03
2018-05-12T08:13:08.226Z,15.70
2018-05-12T08:15:34.444Z,15.20
2018-05-12T08:18:00.911Z,14.90
2018-05-12T08:20:27.878Z,15.23
2018-05-12T08:22:54.369Z,13.37
2018-05-12T08:25:20.569Z,13.53
2018-05-12T08:27:46.784Z,13.30
2018-05-12T08:30:13.133Z,14.20
2018-05-12T08:32:39.367Z,13.87
2018-05-12T08:35:05.587Z,13.27
2018-05-12T08:37:31.805Z,14.40
2018-05-12T08:39:58.020Z,13.43
2018-05-12T08:42:24.227Z,13.37
2018-05-12T08:44:51.214Z,12.63
2018-05-12T08:47:17.456Z,11.80
2018-05-12T08:49:43.668Z,11.37
2018-05-12T08:52:09.852Z,13.00
2018-05-12T08:54:36.810Z,11.37
2018-05-12T08:57:03.011Z,11.80
2018-05-12T08:59:29.225Z,12.70
2018-05-12T09:01:55.451Z,11.50
2018-05-12T09:04:21.687Z,10.03
2018-05-12T09:06:47.913Z,11.00
2018-05-12T09:09:14.133Z,10.07
2018-05-12T09:11:40.369Z,10.30
2018-05-12T09:14:07.108Z,10.33
2018-05-12T09:16:33.295Z,9.50
2018-05-12T09:18:59.508Z,9.77
2018-05-12T09:21:26.144Z,9.27
2018-05-12T09:23:52.577Z,8.43
2018-05-12T09:26:18.848Z,9.20
2018-05-12T09:28:45.125Z,9.37
2018-05-12T09:31:12.111Z,10.20
2018-05-12T09:33:38.352Z,9.13
2018-05-12T09:36:05.194Z,9.40
2018-05-12T09:38:31.394Z,7.97
2018-05-12T09:40:57.629Z,7.47
2018-05-12T09:43:23.844Z,7.10
2018-05-12T09:45:50.160Z,6.20
2018-05-12T09:48:17.836Z,6.53
2018-05-12T09:50:44.801Z,7.07
2018-05-12T09:53:11.027Z,6.80
2018-05-12T09:55:37.240Z,6.30
2018-05-12T09:58:04.254Z,6.17
2018-05-12T10:00:30.492Z,5.10
2018-05-12T10:02:57.452Z,5.80
2018-05-12T10:05:24.735Z,5.13
2018-05-12T10:07:50.949Z,5.00
2018-05-12T10:10:17.193Z,4.87
2018-05-12T10:12:43.483Z,5.63
2018-05-12T10:15:09.766Z,5.47
2018-05-12T10:17:36.009Z,5.83
2018-05-12T10:20:02.253Z,5.13
2018-05-12T10:22:28.462Z,4.87
2018-05-12T10:24:54.692Z,5.10
2018-05-12T10:27:20.911Z,4.80
2018-05-12T10:29:47.112Z,4.90
2018-05-12T10:32:14.070Z,4.77
2018-05-12T10:34:42.871Z,4.73
2018-05-12T10:37:09.072Z,4.27
2018-05-12T10:39:35.787Z,4.40
2018-05-12T10:42:02.844Z,4.30
2018-05-12T10:44:29.780Z,4.30
2018-05-12T10:46:56.014Z,4.50
2018-05-12T10:49:22.232Z,5.10
2018-05-12T10:51:48.501Z,5.00
2018-05-12T10:54:14.719Z,4.80
2018-05-12T10:56:41.674Z,4.57
2018-05-12T10:59:07.864Z,4.83
2018-05-12T11:01:34.107Z,4.40
2018-05-12T11:04:01.061Z,3.80
2018-05-12T11:06:27.999Z,5.27
2018-05-12T11:08:54.961Z,4.73
2018-05-12T11:11:21.949Z,4.90
2018-05-12T11:13:48.250Z,5.23
2018-05-12T11:16:15.417Z,5.23
2018-05-12T11:18:41.752Z,5.40
2018-05-12T11:21:08.224Z,5.80
2018-05-12T11:23:34.453Z,5.70
2018-05-12T11:26:00.652Z,5.80
2018-05-12T11:28:26.915Z,5.87
2018-05-12T11:30:53.149Z,5.80
2018-05-12T11:33:19.361Z,6.03
2018-05-12T11:35:46.340Z,5.10
2018-05-12T11:38:13.306Z,6.27
2018-05-12T11:40:40.302Z,5.47
2018-05-12T11:43:07.075Z,5.00
2018-05-12T11:45:34.093Z,5.70
2018-05-12T11:48:00.314Z,5.70
2018-05-12T11:50:26.544Z,6.83
2018-05-12T11:52:52.805Z,6.10
2018-05-12T11:55:19.829Z,5.90
2018-05-12T11:57:46.051Z,5.60
2018-05-12T12:00:12.277Z,6.57
2018-05-12T12:02:38.688Z,7.13
2018-05-12T12:05:04.981Z,6.70
2018-05-12T12:07:31.431Z,6.13
2018-05-12T12:09:57.766Z,6.50
2018-05-12T12:12:23.959Z,5.70
2018-05-12T12:14:50.385Z,6.07
2018-05-12T12:17:16.661Z,6.77
2018-05-12T12:19:42.865Z,6.10
2018-05-12T12:22:09.930Z,5.80
2018-05-12T12:24:36.177Z,5.17
2018-05-12T12:27:02.413Z,5.30
2018-05-12T12:29:28.637Z,6.10
2018-05-12T12:31:54.872Z,4.97
2018-05-12T12:34:21.528Z,5.37
2018-05-12T12:36:48.474Z,5.33
2018-05-12T12:39:14.697Z,5.40
2018-05-12T12:41:41.053Z,5.43
2018-05-12T12:44:07.249Z,5.27
2018-05-12T12:46:33.439Z,5.00
2018-05-12T12:49:00.415Z,4.73
2018-05-12T12:51:26.630Z,4.43
2018-05-12T12:53:52.965Z,4.17
2018-05-12T12:56:19.169Z,3.80
2018-05-12T12:58:46.137Z,4.93
2018-05-12T13:01:12.429Z,4.10
2018-05-12T13:03:38.672Z,4.90
2018-05-12T13:06:05.644Z,4.70
2018-05-12T13:08:31.883Z,5.77
2018-05-12T13:10:58.116Z,5.40
2018-05-12T13:13:24.308Z,4.73
2018-05-12T13:15:51.351Z,5.03
2018-05-12T13:18:18.237Z,5.03
2018-05-12T13:20:44.462Z,4.70
2018-05-12T13:23:10.685Z,5.77
2018-05-12T13:25:37.362Z,6.10
2018-05-12T13:28:03.679Z,5.40
2018-05-12T13:30:30.649Z,5.27
2018-05-12T13:32:56.954Z,5.20
2018-05-12T13:35:23.176Z,5.50
2018-05-12T13:37:49.367Z,4.83
2018-05-12T13:40:16.561Z,4.70
2018-05-12T13:42:42.944Z,4.83
2018-05-12T13:45:09.922Z,4.60
2018-05-12T13:47:36.148Z,4.40
2018-05-12T13:50:02.397Z,5.20
2018-05-12T13:52:28.674Z,4.90
2018-05-12T13:54:55.672Z,4.57
2018-05-12T13:57:21.918Z,5.40
2018-05-12T13:59:48.128Z,5.47
2018-05-12T14:02:14.332Z,5.50
2018-05-12T14:04:41.290Z,4.83
2018-05-12T14:07:07.488Z,5.73
2018-05-12T14:09:34.472Z,4.80
2018-05-12T14:12:00.812Z,6.10
2018-05-12T14:14:27.004Z,6.10
2018-05-12T14:16:53.960Z,6.03
2018-05-12T14:19:20.168Z,5.80
2018-05-12T14:21:47.135Z,5.80
2018-05-12T14:24:13.344Z,5.33
2018-05-12T14:26:40.441Z,5.83
2018-05-12T14:29:06.649Z,6.20
2018-05-12T14:31:32.844Z,5.67
2018-05-12T14:34:00.277Z,6.10
2018-05-12T14:36:26.483Z,6.37
2018-05-12T14:38:52.772Z,6.37
2018-05-12T14:41:19.740Z,5.73
2018-05-12T14:43:46.052Z,6.60
2018-05-12T14:46:12.285Z,6.33
2018-05-12T14:48:39.268Z,6.40
2018-05-12T14:51:05.502Z,6.70
2018-05-12T14:53:31.698Z,6.77
2018-05-12T14:55:57.924Z,7.20
2018-05-12T14:58:24.132Z,6.70
2018-05-12T15:00:51.161Z,6.50
2018-05-12T15:03:18.175Z,6.00
2018-05-12T15:05:44.417Z,6.30
2018-05-12T15:08:10.621Z,6.63
2018-05-12T15:10:36.926Z,6.70
2018-05-12T15:13:03.292Z,6.07
2018-05-12T15:15:29.745Z,7.20
2018-05-12T15:17:56.166Z,6.80
2018-05-12T15:20:22.389Z,6.40
2018-05-12T15:22:48.635Z,5.90
2018-05-12T15:25:14.853Z,6.03
2018-05-12T15:27:41.061Z,6.90
2018-05-12T15:30:07.286Z,6.50
2018-05-12T15:32:33.489Z,6.50
2018-05-12T15:35:00.440Z,6.70
2018-05-12T15:37:27.402Z,6.87
2018-05-12T15:39:53.982Z,7.20
2018-05-12T15:42:21.084Z,6.83
2018-05-12T15:44:47.294Z,7.53
2018-05-12T15:47:13.535Z,6.40
2018-05-12T15:49:40.505Z,6.30
2018-05-12T15:52:06.888Z,7.30
2018-05-12T15:54:33.091Z,6.80
2018-05-12T15:56:59.294Z,6.53
2018-05-12T15:59:25.570Z,7.00
2018-05-12T16:01:51.939Z,6.37
2018-05-12T16:04:18.912Z,6.70
2018-05-12T16:06:45.100Z,6.70
2018-05-12T16:09:12.064Z,7.17
2018-05-12T16:11:38.312Z,6.97
2018-05-12T16:14:04.663Z,6.50
2018-05-12T16:16:30.900Z,6.30
2018-05-12T16:18:57.108Z,6.43
2018-05-12T16:21:23.571Z,6.57
2018-05-12T16:23:49.804Z,7.00
2018-05-12T16:26:16.034Z,6.07
2018-05-12T16:28:42.407Z,6.90
2018-05-12T16:31:08.799Z,6.87
2018-05-12T16:33:35.032Z,7.03
2018-05-12T16:36:01.855Z,6.93
2018-05-12T16:38:28.076Z,6.30
2018-05-12T16:40:54.283Z,6.20
2018-05-12T16:43:20.531Z,6.97
2018-05-12T16:45:46.736Z,5.63
2018-05-12T16:48:12.965Z,6.57
2018-05-12T16:50:39.210Z,7.27
2018-05-12T16:53:05.500Z,6.83
2018-05-12T16:55:32.509Z,6.40
2018-05-12T16:57:59.148Z,6.00
2018-05-12T17:00:25.821Z,6.53
2018-05-12T17:02:52.807Z,6.80
2018-05-12T17:05:19.061Z,7.30
2018-05-12T17:07:45.298Z,5.80
2018-05-12T17:10:13.763Z,7.57
2018-05-12T17:12:39.998Z,11.73
2018-05-12T17:15:06.203Z,626.30
2018-05-12T17:17:32.427Z,803.87
2018-05-12T17:19:58.716Z,859.20
2018-05-12T17:22:24.916Z,221.47
2018-05-12T17:24:51.225Z,705.53
2018-05-12T17:27:17.550Z,984.70
2018-05-12T17:29:43.845Z,57.57
2018-05-12T17:32:10.000Z,410.90
2018-05-12T17:34:37.051Z,379.60
2018-05-12T17:37:03.252Z,186.87
2018-05-12T17:39:30.314Z,905.93
2018-05-12T17:41:57.288Z,885.43
2018-05-12T17:44:23.586Z,39.63
2018-05-12T17:46:49.772Z,34.60
2018-05-12T17:49:16.072Z,19.30
2018-05-12T17:51:42.312Z,19.80
2018-05-12T17:54:08.614Z,15.70
2018-05-12T17:56:35.217Z,14.43
2018-05-12T17:59:01.465Z,11.00
2018-05-12T18:01:28.437Z,11.03
2018-05-12T18:03:54.682Z,24.03
2018-05-12T18:06:20.897Z,8.43
2018-05-12T18:08:47.316Z,10.50
2018-05-12T18:11:13.542Z,10.93
2018-05-12T18:13:40.881Z,8.40
2018-05-12T18:16:08.112Z,9.30
2018-05-12T18:18:34.385Z,45.60
2018-05-12T18:21:00.623Z,13.43
2018-05-12T18:23:26.924Z,8.37
2018-05-12T18:25:54.184Z,24.70
2018-05-12T18:28:21.141Z,9.50
2018-05-12T18:30:48.249Z,13.73
2018-05-12T18:33:14.468Z,13.07
2018-05-12T18:35:40.672Z,11.93
2018-05-12T18:38:06.893Z,8.60
2018-05-12T18:40:33.096Z,9.00
2018-05-12T18:43:00.037Z,11.87
2018-05-12T18:45:27.008Z,14.27
2018-05-12T18:47:53.244Z,8.00
2018-05-12T18:50:20.672Z,8.83
2018-05-12T18:52:48.911Z,7.80
2018-05-12T18:55:15.277Z,8.40
2018-05-12T18:57:42.217Z,7.47
2018-05-12T19:00:09.171Z,8.80
2018-05-12T19:02:35.372Z,8.40
2018-05-12T19:05:01.585Z,9.50
2018-05-12T19:07:27.892Z,7.30
2018-05-12T19:09:54.100Z,10.00
2018-05-12T19:12:20.328Z,6.53
2018-05-12T19:14:47.104Z,6.30
2018-05-12T19:17:13.380Z,6.37
2018-05-12T19:19:40.492Z,8.17
2018-05-12T19:22:06.725Z,6.67
2018-05-12T19:24:32.953Z,7.07
2018-05-12T19:26:59.162Z,7.70
2018-05-12T19:29:25.400Z,7.83
2018-05-12T19:31:51.613Z,8.77
2018-05-12T19:34:18.275Z,9.00
2018-05-12T19:36:44.520Z,9.77
2018-05-12T19:39:11.043Z,10.57
2018-05-12T19:41:37.364Z,9.57
2018-05-12T19:44:03.677Z,8.73
2018-05-12T19:46:30.012Z,9.30
2018-05-12T19:48:56.322Z,8.87
2018-05-12T19:51:22.591Z,8.60
2018-05-12T19:53:49.192Z,8.30
2018-05-12T19:56:15.549Z,8.77
2018-05-12T19:58:42.523Z,9.47
2018-05-12T20:01:08.874Z,8.23
2018-05-12T20:03:35.085Z,8.60
2018-05-12T20:06:01.339Z,7.67
2018-05-12T20:08:28.446Z,7.60
2018-05-12T20:10:54.826Z,7.80
2018-05-12T20:13:21.791Z,8.03
2018-05-12T20:15:48.055Z,8.20
2018-05-12T20:18:15.560Z,8.53
2018-05-12T20:20:42.654Z,8.93
2018-05-12T20:23:09.037Z,8.57
2018-05-12T20:25:35.520Z,8.63
2018-05-12T20:28:02.212Z,8.60
2018-05-12T20:30:28.421Z,7.83
2018-05-12T20:32:54.629Z,7.27
2018-05-12T20:35:20.833Z,6.93
2018-05-12T20:37:47.214Z,6.83
2018-05-12T20:40:13.734Z,7.23
2018-05-12T20:42:40.132Z,7.23
2018-05-12T20:45:06.545Z,6.73
2018-05-12T20:47:33.512Z,6.40
2018-05-12T20:49:59.701Z,6.97
2018-05-12T20:52:26.013Z,6.73
2018-05-12T20:54:52.471Z,5.20
2018-05-12T20:57:19.685Z,6.50
2018-05-12T20:59:46.021Z,6.00
2018-05-12T21:02:12.300Z,6.67
2018-05-12T21:04:39.310Z,5.53
2018-05-12T21:07:05.725Z,6.40
2018-05-12T21:09:32.020Z,5.83
2018-05-12T21:11:58.956Z,5.80
2018-05-12T21:14:27.064Z,6.03
2018-05-12T21:16:53.440Z,6.20
2018-05-12T21:19:19.664Z,6.20
2018-05-12T21:21:45.912Z,5.57
2018-05-12T21:24:12.937Z,5.80
2018-05-12T21:26:39.255Z,6.30
2018-05-12T21:29:05.493Z,6.10
2018-05-12T21:31:32.020Z,5.83
2018-05-12T21:33:58.921Z,5.90
2018-05-12T21:36:26.429Z,5.60
2018-05-12T21:38:52.775Z,6.03
2018-05-12T21:41:20.189Z,5.47
2018-05-12T21:43:46.516Z,6.50
2018-05-12T21:46:12.832Z,6.17
2018-05-12T21:48:39.062Z,6.10
2018-05-12T21:51:05.288Z,6.13
2018-05-12T21:53:31.500Z,6.30
2018-05-12T21:55:58.537Z,6.23
2018-05-12T21:58:25.284Z,6.60
2018-05-12T22:00:52.284Z,6.20
2018-05-12T22:03:18.483Z,6.47
2018-05-12T22:05:44.661Z,6.97
2018-05-12T22:08:11.131Z,6.17
2018-05-12T22:10:37.955Z,7.30
2018-05-12T22:13:04.184Z,6.67
2018-05-12T22:15:30.646Z,6.10
2018-05-12T22:17:56.956Z,6.90
2018-05-12T22:20:24.071Z,6.70
2018-05-12T22:22:50.303Z,6.80
2018-05-12T22:25:16.511Z,7.10
2018-05-12T22:27:42.730Z,7.17
2018-05-12T22:30:08.944Z,7.23
2018-05-12T22:32:35.204Z,7.47
2018-05-12T22:35:01.407Z,8.00
2018-05-12T22:37:27.600Z,7.53
2018-05-12T22:39:54.025Z,8.30
2018-05-12T22:42:20.266Z,7.73
2018-05-12T22:44:46.476Z,7.97
2018-05-12T22:47:12.748Z,8.30
2018-05-12T22:49:39.245Z,8.30
2018-05-12T22:52:05.461Z,10.63
2018-05-12T22:54:32.025Z,9.23
2018-05-12T22:56:59.156Z,9.00
2018-05-12T22:59:25.385Z,8.63
2018-05-12T23:01:52.606Z,9.70
2018-05-12T23:04:18.869Z,9.60
2018-05-12T23:06:45.087Z,9.77
2018-05-12T23:09:12.225Z,8.87
2018-05-12T23:11:38.565Z,9.67
2018-05-12T23:14:04.773Z,9.73
2018-05-12T23:16:31.076Z,9.00
2018-05-12T23:18:57.332Z,9.40
2018-05-12T23:21:23.537Z,9.50
2018-05-12T23:23:50.511Z,11.00
2018-05-12T23:26:16.920Z,10.07
2018-05-12T23:28:43.280Z,10.40
2018-05-12T23:31:09.486Z,11.13
2018-05-12T23:33:35.713Z,11.00
2018-05-12T23:36:01.993Z,11.20
2018-05-12T23:38:28.289Z,11.17
2018-05-12T23:40:54.705Z,9.93
2018-05-12T23:43:22.420Z,10.87
2018-05-12T23:45:49.090Z,11.10
2018-05-12T23:48:16.044Z,11.33
2018-05-12T23:50:42.927Z,12.17
2018-05-12T23:53:09.296Z,12.70
2018-05-12T23:55:35.569Z,11.40
2018-05-12T23:58:02.111Z,11.50
